sensor_id;sensor_type;location;lat;lon;timestamp;temperature;humidity
59307;DHT22;47983;53.016;-2.260;2023-07-31T00:00:55;16.00;99.90
59307;DHT22;47983;53.016;-2.260;2023-07-31T00:03:23;16.00;99.90
59307;DHT22;47983;53.016;-2.260;2023-07-31T00:05:51;15.90;99.90
59307;DHT22;47983;53.016;-2.260;2023-07-31T00:08:19;16.00;99.90
59307;DHT22;47983;53.016;-2.260;2023-07-31T00:10:47;16.00;99.90
59307;DHT22;47983;53.016;-2.260;2023-07-31T00:13:14;16.00;99.90
59307;DHT22;47983;53.016;-2.260;2023-07-31T00:15:42;16.00;99.90
59307;DHT22;47983;53.016;-2.260;2023-07-31T00:18:10;16.00;99.90
59307;DHT22;47983;53.016;-2.260;2023-07-31T00:20:37;16.00;99.90
59307;DHT22;47983;53.016;-2.260;2023-07-31T00:23:05;16.00;99.90
59307;DHT22;47983;53.016;-2.260;2023-07-31T00:25:32;16.00;99.90
59307;DHT22;47983;53.016;-2.260;2023-07-31T00:28:00;16.00;99.90
59307;DHT22;47983;53.016;-2.260;2023-07-31T00:30:28;16.00;99.90
59307;DHT22;47983;53.016;-2.260;2023-07-31T00:32:55;16.00;99.90
59307;DHT22;47983;53.016;-2.260;2023-07-31T00:35:23;16.00;99.90
59307;DHT22;47983;53.016;-2.260;2023-07-31T00:37:52;16.00;99.90
59307;DHT22;47983;53.016;-2.260;2023-07-31T00:40:20;15.90;99.90
59307;DHT22;47983;53.016;-2.260;2023-07-31T00:42:47;16.00;99.90
59307;DHT22;47983;53.016;-2.260;2023-07-31T00:45:15;16.00;99.90
59307;DHT22;47983;53.016;-2.260;2023-07-31T00:47:43;15.90;99.90
59307;DHT22;47983;53.016;-2.260;2023-07-31T00:50:10;16.00;99.90
59307;DHT22;47983;53.016;-2.260;2023-07-31T00:52:38;15.90;99.90
59307;DHT22;47983;53.016;-2.260;2023-07-31T00:55:07;16.00;99.90
59307;DHT22;47983;53.016;-2.260;2023-07-31T00:57:35;16.00;99.90
59307;DHT22;47983;53.016;-2.260;2023-07-31T01:00:04;16.00;99.90
59307;DHT22;47983;53.016;-2.260;2023-07-31T01:02:32;16.00;99.90
59307;DHT22;47983;53.016;-2.260;2023-07-31T01:10:14;16.00;99.90
59307;DHT22;47983;53.016;-2.260;2023-07-31T01:12:45;16.00;99.90
59307;DHT22;47983;53.016;-2.260;2023-07-31T01:15:14;16.00;99.90
59307;DHT22;47983;53.016;-2.260;2023-07-31T01:17:43;16.10;99.90
59307;DHT22;47983;53.016;-2.260;2023-07-31T01:20:13;16.10;99.90
59307;DHT22;47983;53.016;-2.260;2023-07-31T01:28:19;16.10;99.90
59307;DHT22;47983;53.016;-2.260;2023-07-31T01:30:48;16.10;99.90
59307;DHT22;47983;53.016;-2.260;2023-07-31T01:33:16;16.20;99.90
59307;DHT22;47983;53.016;-2.260;2023-07-31T01:35:46;16.20;99.90
59307;DHT22;47983;53.016;-2.260;2023-07-31T01:38:15;16.20;99.90
59307;DHT22;47983;53.016;-2.260;2023-07-31T01:40:43;16.20;99.90
59307;DHT22;47983;53.016;-2.260;2023-07-31T01:43:10;16.20;99.90
59307;DHT22;47983;53.016;-2.260;2023-07-31T01:45:38;16.20;99.90
59307;DHT22;47983;53.016;-2.260;2023-07-31T01:48:06;16.30;99.90
59307;DHT22;47983;53.016;-2.260;2023-07-31T01:50:34;16.30;99.90
59307;DHT22;47983;53.016;-2.260;2023-07-31T01:53:01;16.30;99.90
59307;DHT22;47983;53.016;-2.260;2023-07-31T01:55:29;16.30;99.90
59307;DHT22;47983;53.016;-2.260;2023-07-31T01:57:57;16.30;99.90
59307;DHT22;47983;53.016;-2.260;2023-07-31T02:00:24;16.30;99.90
59307;DHT22;47983;53.016;-2.260;2023-07-31T02:02:52;16.40;99.90
59307;DHT22;47983;53.016;-2.260;2023-07-31T02:05:20;16.40;99.90
59307;DHT22;47983;53.016;-2.260;2023-07-31T02:07:47;16.40;99.90
59307;DHT22;47983;53.016;-2.260;2023-07-31T02:10:15;16.40;99.90
59307;DHT22;47983;53.016;-2.260;2023-07-31T02:12:43;16.40;99.90
59307;DHT22;47983;53.016;-2.260;2023-07-31T02:15:10;16.40;99.90
59307;DHT22;47983;53.016;-2.260;2023-07-31T02:17:38;16.40;99.90
59307;DHT22;47983;53.016;-2.260;2023-07-31T02:20:07;16.50;99.90
59307;DHT22;47983;53.016;-2.260;2023-07-31T02:22:35;16.40;99.90
59307;DHT22;47983;53.016;-2.260;2023-07-31T02:25:02;16.50;99.90
59307;DHT22;47983;53.016;-2.260;2023-07-31T02:27:30;16.50;99.90
59307;DHT22;47983;53.016;-2.260;2023-07-31T02:29:58;16.50;99.90
59307;DHT22;47983;53.016;-2.260;2023-07-31T02:32:26;16.60;99.90
59307;DHT22;47983;53.016;-2.260;2023-07-31T02:34:54;16.60;99.90
59307;DHT22;47983;53.016;-2.260;2023-07-31T02:37:25;16.60;99.90
59307;DHT22;47983;53.016;-2.260;2023-07-31T02:39:53;16.60;99.90
59307;DHT22;47983;53.016;-2.260;2023-07-31T02:42:20;16.60;99.90
59307;DHT22;47983;53.016;-2.260;2023-07-31T02:44:48;16.60;99.90
59307;DHT22;47983;53.016;-2.260;2023-07-31T02:47:21;16.70;99.90
59307;DHT22;47983;53.016;-2.260;2023-07-31T02:49:50;16.70;99.90
59307;DHT22;47983;53.016;-2.260;2023-07-31T02:52:18;16.70;99.90
59307;DHT22;47983;53.016;-2.260;2023-07-31T02:54:47;16.70;99.90
59307;DHT22;47983;53.016;-2.260;2023-07-31T02:57:14;16.70;99.90
59307;DHT22;47983;53.016;-2.260;2023-07-31T02:59:43;16.70;99.90
59307;DHT22;47983;53.016;-2.260;2023-07-31T03:02:11;16.70;99.90
59307;DHT22;47983;53.016;-2.260;2023-07-31T03:04:40;16.70;99.90
59307;DHT22;47983;53.016;-2.260;2023-07-31T03:07:08;16.70;99.90
59307;DHT22;47983;53.016;-2.260;2023-07-31T03:09:36;16.70;99.90
59307;DHT22;47983;53.016;-2.260;2023-07-31T03:12:03;16.70;99.90
59307;DHT22;47983;53.016;-2.260;2023-07-31T03:14:31;16.70;99.90
59307;DHT22;47983;53.016;-2.260;2023-07-31T03:16:59;16.70;99.90
59307;DHT22;47983;53.016;-2.260;2023-07-31T03:19:29;16.70;99.90
59307;DHT22;47983;53.016;-2.260;2023-07-31T03:21:58;16.70;99.90
59307;DHT22;47983;53.016;-2.260;2023-07-31T03:24:26;16.70;99.90
59307;DHT22;47983;53.016;-2.260;2023-07-31T03:26:53;16.70;99.90
59307;DHT22;47983;53.016;-2.260;2023-07-31T03:29:22;16.70;99.90
59307;DHT22;47983;53.016;-2.260;2023-07-31T03:31:52;16.70;99.90
59307;DHT22;47983;53.016;-2.260;2023-07-31T03:34:20;16.70;99.90
59307;DHT22;47983;53.016;-2.260;2023-07-31T03:36:48;16.70;99.90
59307;DHT22;47983;53.016;-2.260;2023-07-31T03:39:15;16.70;99.90
59307;DHT22;47983;53.016;-2.260;2023-07-31T03:41:43;16.70;99.90
59307;DHT22;47983;53.016;-2.260;2023-07-31T03:44:11;16.70;99.90
59307;DHT22;47983;53.016;-2.260;2023-07-31T03:46:38;16.60;99.90
59307;DHT22;47983;53.016;-2.260;2023-07-31T03:49:06;16.60;99.90
59307;DHT22;47983;53.016;-2.260;2023-07-31T03:51:34;16.60;99.90
59307;DHT22;47983;53.016;-2.260;2023-07-31T03:54:02;16.60;99.90
59307;DHT22;47983;53.016;-2.260;2023-07-31T03:56:29;16.60;99.90
59307;DHT22;47983;53.016;-2.260;2023-07-31T03:59:00;16.60;99.90
59307;DHT22;47983;53.016;-2.260;2023-07-31T04:01:28;16.60;99.90
59307;DHT22;47983;53.016;-2.260;2023-07-31T04:03:55;16.60;99.90
59307;DHT22;47983;53.016;-2.260;2023-07-31T04:06:23;16.50;99.90
59307;DHT22;47983;53.016;-2.260;2023-07-31T04:08:51;16.50;99.90
59307;DHT22;47983;53.016;-2.260;2023-07-31T04:11:18;16.50;99.90
59307;DHT22;47983;53.016;-2.260;2023-07-31T04:13:46;16.50;99.90
59307;DHT22;47983;53.016;-2.260;2023-07-31T04:16:14;16.50;99.90
59307;DHT22;47983;53.016;-2.260;2023-07-31T04:18:42;16.40;99.90
59307;DHT22;47983;53.016;-2.260;2023-07-31T04:23:38;16.30;99.90
59307;DHT22;47983;53.016;-2.260;2023-07-31T04:26:05;16.30;99.90
59307;DHT22;47983;53.016;-2.260;2023-07-31T04:28:33;16.30;99.90
59307;DHT22;47983;53.016;-2.260;2023-07-31T04:31:01;16.30;99.90
59307;DHT22;47983;53.016;-2.260;2023-07-31T04:33:28;16.20;99.90
59307;DHT22;47983;53.016;-2.260;2023-07-31T04:35:57;16.20;99.90
59307;DHT22;47983;53.016;-2.260;2023-07-31T04:38:24;16.20;99.90
59307;DHT22;47983;53.016;-2.260;2023-07-31T04:40:52;16.20;99.90
59307;DHT22;47983;53.016;-2.260;2023-07-31T04:43:23;16.20;99.90
59307;DHT22;47983;53.016;-2.260;2023-07-31T04:45:51;16.30;99.90
59307;DHT22;47983;53.016;-2.260;2023-07-31T04:48:20;16.30;99.90
59307;DHT22;47983;53.016;-2.260;2023-07-31T04:50:51;16.30;99.90
59307;DHT22;47983;53.016;-2.260;2023-07-31T04:53:19;16.30;99.90
59307;DHT22;47983;53.016;-2.260;2023-07-31T04:55:46;16.40;99.90
59307;DHT22;47983;53.016;-2.260;2023-07-31T04:58:14;16.40;99.90
59307;DHT22;47983;53.016;-2.260;2023-07-31T05:00:42;16.40;99.90
59307;DHT22;47983;53.016;-2.260;2023-07-31T05:03:09;16.40;99.90
59307;DHT22;47983;53.016;-2.260;2023-07-31T05:05:39;16.40;99.90
59307;DHT22;47983;53.016;-2.260;2023-07-31T05:08:07;16.40;99.90
59307;DHT22;47983;53.016;-2.260;2023-07-31T05:10:35;16.50;99.90
59307;DHT22;47983;53.016;-2.260;2023-07-31T05:13:03;16.40;99.90
59307;DHT22;47983;53.016;-2.260;2023-07-31T05:15:31;16.50;99.90
59307;DHT22;47983;53.016;-2.260;2023-07-31T05:17:59;16.40;99.90
59307;DHT22;47983;53.016;-2.260;2023-07-31T05:20:26;16.50;99.90
59307;DHT22;47983;53.016;-2.260;2023-07-31T05:22:55;16.40;99.90
59307;DHT22;47983;53.016;-2.260;2023-07-31T05:27:51;16.40;99.90
59307;DHT22;47983;53.016;-2.260;2023-07-31T05:30:21;16.50;99.90
59307;DHT22;47983;53.016;-2.260;2023-07-31T05:32:49;16.50;99.90
59307;DHT22;47983;53.016;-2.260;2023-07-31T05:35:16;16.50;99.90
59307;DHT22;47983;53.016;-2.260;2023-07-31T05:37:44;16.50;99.90
59307;DHT22;47983;53.016;-2.260;2023-07-31T05:40:12;16.50;99.90
59307;DHT22;47983;53.016;-2.260;2023-07-31T05:42:40;16.50;99.90
59307;DHT22;47983;53.016;-2.260;2023-07-31T05:45:08;16.50;99.90
59307;DHT22;47983;53.016;-2.260;2023-07-31T05:47:36;16.50;99.90
59307;DHT22;47983;53.016;-2.260;2023-07-31T05:50:05;16.50;99.90
59307;DHT22;47983;53.016;-2.260;2023-07-31T05:52:32;16.60;99.90
59307;DHT22;47983;53.016;-2.260;2023-07-31T05:55:00;16.60;99.90
59307;DHT22;47983;53.016;-2.260;2023-07-31T05:57:28;16.60;99.90
59307;DHT22;47983;53.016;-2.260;2023-07-31T05:59:56;16.60;99.90
59307;DHT22;47983;53.016;-2.260;2023-07-31T06:02:24;16.70;99.90
59307;DHT22;47983;53.016;-2.260;2023-07-31T06:04:51;16.70;99.90
59307;DHT22;47983;53.016;-2.260;2023-07-31T06:07:20;16.80;99.90
59307;DHT22;47983;53.016;-2.260;2023-07-31T06:09:48;16.80;99.90
59307;DHT22;47983;53.016;-2.260;2023-07-31T06:12:15;16.90;99.90
59307;DHT22;47983;53.016;-2.260;2023-07-31T06:14:46;16.90;99.90
59307;DHT22;47983;53.016;-2.260;2023-07-31T06:17:14;16.90;99.90
59307;DHT22;47983;53.016;-2.260;2023-07-31T06:19:42;16.80;99.90
59307;DHT22;47983;53.016;-2.260;2023-07-31T06:22:10;17.00;99.90
59307;DHT22;47983;53.016;-2.260;2023-07-31T06:24:37;17.00;99.90
59307;DHT22;47983;53.016;-2.260;2023-07-31T06:27:05;17.00;99.90
59307;DHT22;47983;53.016;-2.260;2023-07-31T06:32:02;17.00;99.90
59307;DHT22;47983;53.016;-2.260;2023-07-31T06:34:30;17.00;99.90
59307;DHT22;47983;53.016;-2.260;2023-07-31T06:36:58;17.00;99.90
59307;DHT22;47983;53.016;-2.260;2023-07-31T06:39:26;17.10;99.90
59307;DHT22;47983;53.016;-2.260;2023-07-31T06:41:53;17.10;99.90
59307;DHT22;47983;53.016;-2.260;2023-07-31T06:44:21;17.10;99.90
59307;DHT22;47983;53.016;-2.260;2023-07-31T06:46:49;17.10;99.90
59307;DHT22;47983;53.016;-2.260;2023-07-31T06:49:16;17.10;99.90
59307;DHT22;47983;53.016;-2.260;2023-07-31T06:51:45;17.20;99.90
59307;DHT22;47983;53.016;-2.260;2023-07-31T06:54:14;17.20;99.90
59307;DHT22;47983;53.016;-2.260;2023-07-31T06:56:41;17.20;99.90
59307;DHT22;47983;53.016;-2.260;2023-07-31T06:59:09;17.20;99.90
59307;DHT22;47983;53.016;-2.260;2023-07-31T07:01:37;17.10;99.90
59307;DHT22;47983;53.016;-2.260;2023-07-31T07:04:06;17.10;99.90
59307;DHT22;47983;53.016;-2.260;2023-07-31T07:06:34;17.10;99.90
59307;DHT22;47983;53.016;-2.260;2023-07-31T07:09:02;17.10;99.90
59307;DHT22;47983;53.016;-2.260;2023-07-31T07:11:31;17.10;99.90
59307;DHT22;47983;53.016;-2.260;2023-07-31T07:13:59;17.00;99.90
59307;DHT22;47983;53.016;-2.260;2023-07-31T07:16:28;17.00;99.90
59307;DHT22;47983;53.016;-2.260;2023-07-31T07:18:56;17.00;99.90
59307;DHT22;47983;53.016;-2.260;2023-07-31T07:21:31;17.00;99.90
59307;DHT22;47983;53.016;-2.260;2023-07-31T07:23:59;16.90;99.90
59307;DHT22;47983;53.016;-2.260;2023-07-31T07:26:27;16.90;99.90
59307;DHT22;47983;53.016;-2.260;2023-07-31T07:28:54;16.90;99.90
59307;DHT22;47983;53.016;-2.260;2023-07-31T07:31:25;16.90;99.90
59307;DHT22;47983;53.016;-2.260;2023-07-31T07:33:53;16.90;99.90
59307;DHT22;47983;53.016;-2.260;2023-07-31T07:36:20;16.90;99.90
59307;DHT22;47983;53.016;-2.260;2023-07-31T07:38:50;16.90;99.90
59307;DHT22;47983;53.016;-2.260;2023-07-31T07:41:18;16.90;99.90
59307;DHT22;47983;53.016;-2.260;2023-07-31T07:43:45;16.90;99.90
59307;DHT22;47983;53.016;-2.260;2023-07-31T07:46:13;16.80;99.90
59307;DHT22;47983;53.016;-2.260;2023-07-31T07:48:41;16.80;99.90
59307;DHT22;47983;53.016;-2.260;2023-07-31T07:51:09;16.90;99.90
59307;DHT22;47983;53.016;-2.260;2023-07-31T07:56:04;16.90;99.90
59307;DHT22;47983;53.016;-2.260;2023-07-31T07:58:32;16.90;99.90
59307;DHT22;47983;53.016;-2.260;2023-07-31T08:01:00;16.90;99.90
59307;DHT22;47983;53.016;-2.260;2023-07-31T08:03:28;16.90;99.90
59307;DHT22;47983;53.016;-2.260;2023-07-31T08:05:59;16.90;99.90
59307;DHT22;47983;53.016;-2.260;2023-07-31T08:08:28;16.90;99.90
59307;DHT22;47983;53.016;-2.260;2023-07-31T08:10:56;17.00;99.90
59307;DHT22;47983;53.016;-2.260;2023-07-31T08:13:24;17.00;99.90
59307;DHT22;47983;53.016;-2.260;2023-07-31T08:15:51;17.00;99.90
59307;DHT22;47983;53.016;-2.260;2023-07-31T08:20:50;17.00;99.90
59307;DHT22;47983;53.016;-2.260;2023-07-31T08:23:20;17.10;99.90
59307;DHT22;47983;53.016;-2.260;2023-07-31T08:25:48;17.10;99.90
59307;DHT22;47983;53.016;-2.260;2023-07-31T08:28:17;17.10;99.90
59307;DHT22;47983;53.016;-2.260;2023-07-31T08:30:44;17.10;99.90
59307;DHT22;47983;53.016;-2.260;2023-07-31T08:33:12;17.10;99.90
59307;DHT22;47983;53.016;-2.260;2023-07-31T08:35:40;17.10;99.90
59307;DHT22;47983;53.016;-2.260;2023-07-31T08:38:07;17.10;99.90
59307;DHT22;47983;53.016;-2.260;2023-07-31T08:40:38;17.10;99.90
59307;DHT22;47983;53.016;-2.260;2023-07-31T08:43:08;17.20;99.90
59307;DHT22;47983;53.016;-2.260;2023-07-31T08:45:36;17.20;99.90
59307;DHT22;47983;53.016;-2.260;2023-07-31T08:48:04;17.30;99.90
59307;DHT22;47983;53.016;-2.260;2023-07-31T08:50:32;17.30;99.90
59307;DHT22;47983;53.016;-2.260;2023-07-31T08:53:00;17.40;99.90
59307;DHT22;47983;53.016;-2.260;2023-07-31T08:55:28;17.60;99.90
59307;DHT22;47983;53.016;-2.260;2023-07-31T08:57:57;17.60;99.90
59307;DHT22;47983;53.016;-2.260;2023-07-31T09:00:27;17.90;99.90
59307;DHT22;47983;53.016;-2.260;2023-07-31T09:02:59;18.00;99.90
59307;DHT22;47983;53.016;-2.260;2023-07-31T09:05:31;18.10;99.90
59307;DHT22;47983;53.016;-2.260;2023-07-31T09:08:02;18.20;99.90
59307;DHT22;47983;53.016;-2.260;2023-07-31T09:10:30;18.20;99.90
59307;DHT22;47983;53.016;-2.260;2023-07-31T09:12:59;18.30;99.90
59307;DHT22;47983;53.016;-2.260;2023-07-31T09:15:27;18.30;99.90
59307;DHT22;47983;53.016;-2.260;2023-07-31T09:18:06;18.30;99.90
59307;DHT22;47983;53.016;-2.260;2023-07-31T09:20:35;18.30;99.90
59307;DHT22;47983;53.016;-2.260;2023-07-31T09:23:11;18.30;99.90
59307;DHT22;47983;53.016;-2.260;2023-07-31T09:25:41;18.40;99.90
59307;DHT22;47983;53.016;-2.260;2023-07-31T09:28:11;18.50;99.90
59307;DHT22;47983;53.016;-2.260;2023-07-31T09:30:50;18.60;99.90
59307;DHT22;47983;53.016;-2.260;2023-07-31T09:33:18;18.60;99.90
59307;DHT22;47983;53.016;-2.260;2023-07-31T09:35:47;18.50;99.90
59307;DHT22;47983;53.016;-2.260;2023-07-31T09:38:16;18.40;99.90
59307;DHT22;47983;53.016;-2.260;2023-07-31T09:40:47;18.40;99.90
59307;DHT22;47983;53.016;-2.260;2023-07-31T09:43:22;18.30;99.90
59307;DHT22;47983;53.016;-2.260;2023-07-31T09:45:55;18.10;99.90
59307;DHT22;47983;53.016;-2.260;2023-07-31T09:48:24;17.90;99.90
59307;DHT22;47983;53.016;-2.260;2023-07-31T09:50:54;17.90;99.90
59307;DHT22;47983;53.016;-2.260;2023-07-31T09:53:28;17.80;99.90
59307;DHT22;47983;53.016;-2.260;2023-07-31T09:56:00;17.80;99.90
59307;DHT22;47983;53.016;-2.260;2023-07-31T09:58:29;17.70;99.90
59307;DHT22;47983;53.016;-2.260;2023-07-31T10:00:58;17.70;99.90
59307;DHT22;47983;53.016;-2.260;2023-07-31T10:03:27;17.60;99.90
59307;DHT22;47983;53.016;-2.260;2023-07-31T10:05:57;17.50;99.90
59307;DHT22;47983;53.016;-2.260;2023-07-31T10:08:30;17.40;99.90
59307;DHT22;47983;53.016;-2.260;2023-07-31T10:11:01;17.40;99.90
59307;DHT22;47983;53.016;-2.260;2023-07-31T10:13:30;17.30;99.90
59307;DHT22;47983;53.016;-2.260;2023-07-31T10:15:59;17.20;99.90
59307;DHT22;47983;53.016;-2.260;2023-07-31T10:18:28;17.20;99.90
59307;DHT22;47983;53.016;-2.260;2023-07-31T10:20:57;17.20;99.90
59307;DHT22;47983;53.016;-2.260;2023-07-31T10:23:25;17.20;99.90
59307;DHT22;47983;53.016;-2.260;2023-07-31T10:25:53;17.20;99.90
59307;DHT22;47983;53.016;-2.260;2023-07-31T10:28:22;17.20;99.90
59307;DHT22;47983;53.016;-2.260;2023-07-31T10:30:53;17.20;99.90
59307;DHT22;47983;53.016;-2.260;2023-07-31T10:33:21;17.20;99.90
59307;DHT22;47983;53.016;-2.260;2023-07-31T10:35:49;17.20;99.90
59307;DHT22;47983;53.016;-2.260;2023-07-31T10:38:23;17.20;99.90
59307;DHT22;47983;53.016;-2.260;2023-07-31T10:40:51;17.20;99.90
59307;DHT22;47983;53.016;-2.260;2023-07-31T10:43:25;17.20;99.90
59307;DHT22;47983;53.016;-2.260;2023-07-31T10:45:57;17.20;99.90
59307;DHT22;47983;53.016;-2.260;2023-07-31T10:48:36;17.20;99.90
59307;DHT22;47983;53.016;-2.260;2023-07-31T10:51:09;17.20;99.90
59307;DHT22;47983;53.016;-2.260;2023-07-31T10:53:40;17.20;99.90
59307;DHT22;47983;53.016;-2.260;2023-07-31T10:56:09;17.30;99.90
59307;DHT22;47983;53.016;-2.260;2023-07-31T10:58:44;17.20;99.90
59307;DHT22;47983;53.016;-2.260;2023-07-31T11:01:13;17.30;99.90
59307;DHT22;47983;53.016;-2.260;2023-07-31T11:03:50;17.30;99.90
59307;DHT22;47983;53.016;-2.260;2023-07-31T11:06:21;17.30;99.90
59307;DHT22;47983;53.016;-2.260;2023-07-31T11:08:50;17.30;99.90
59307;DHT22;47983;53.016;-2.260;2023-07-31T11:11:19;17.20;99.90
59307;DHT22;47983;53.016;-2.260;2023-07-31T11:13:49;17.20;99.90
59307;DHT22;47983;53.016;-2.260;2023-07-31T11:16:19;17.10;99.90
59307;DHT22;47983;53.016;-2.260;2023-07-31T11:18:48;16.80;99.90
59307;DHT22;47983;53.016;-2.260;2023-07-31T11:21:24;16.70;99.90
59307;DHT22;47983;53.016;-2.260;2023-07-31T11:23:56;16.60;99.90
59307;DHT22;47983;53.016;-2.260;2023-07-31T11:26:25;16.50;99.90
59307;DHT22;47983;53.016;-2.260;2023-07-31T11:28:55;16.30;99.90
59307;DHT22;47983;53.016;-2.260;2023-07-31T11:31:22;16.20;99.90
59307;DHT22;47983;53.016;-2.260;2023-07-31T11:33:50;16.10;99.90
59307;DHT22;47983;53.016;-2.260;2023-07-31T11:36:21;16.00;99.90
59307;DHT22;47983;53.016;-2.260;2023-07-31T11:38:48;16.00;99.90
59307;DHT22;47983;53.016;-2.260;2023-07-31T11:41:16;16.00;99.90
59307;DHT22;47983;53.016;-2.260;2023-07-31T11:43:46;16.10;99.90
59307;DHT22;47983;53.016;-2.260;2023-07-31T11:46:15;16.10;99.90
59307;DHT22;47983;53.016;-2.260;2023-07-31T11:48:43;16.10;99.90
59307;DHT22;47983;53.016;-2.260;2023-07-31T11:51:13;16.10;99.90
59307;DHT22;47983;53.016;-2.260;2023-07-31T11:53:47;16.10;99.90
59307;DHT22;47983;53.016;-2.260;2023-07-31T11:56:18;16.20;99.90
59307;DHT22;47983;53.016;-2.260;2023-07-31T11:58:48;16.20;99.90
59307;DHT22;47983;53.016;-2.260;2023-07-31T12:01:18;16.40;99.90
59307;DHT22;47983;53.016;-2.260;2023-07-31T12:03:48;16.30;99.90
59307;DHT22;47983;53.016;-2.260;2023-07-31T12:06:16;16.40;99.90
59307;DHT22;47983;53.016;-2.260;2023-07-31T12:08:44;16.40;99.90
59307;DHT22;47983;53.016;-2.260;2023-07-31T12:11:12;16.40;99.90
59307;DHT22;47983;53.016;-2.260;2023-07-31T12:13:45;16.50;99.90
59307;DHT22;47983;53.016;-2.260;2023-07-31T12:16:13;16.40;99.90
59307;DHT22;47983;53.016;-2.260;2023-07-31T12:18:41;16.30;99.90
59307;DHT22;47983;53.016;-2.260;2023-07-31T12:21:09;16.20;99.90
59307;DHT22;47983;53.016;-2.260;2023-07-31T12:23:39;16.10;99.90
59307;DHT22;47983;53.016;-2.260;2023-07-31T12:26:14;16.10;99.90
59307;DHT22;47983;53.016;-2.260;2023-07-31T12:28:46;16.00;99.90
59307;DHT22;47983;53.016;-2.260;2023-07-31T12:31:20;16.00;99.90
59307;DHT22;47983;53.016;-2.260;2023-07-31T12:33:49;15.90;99.90
59307;DHT22;47983;53.016;-2.260;2023-07-31T12:36:20;15.90;99.90
59307;DHT22;47983;53.016;-2.260;2023-07-31T12:38:51;15.80;99.90
59307;DHT22;47983;53.016;-2.260;2023-07-31T12:41:19;15.90;99.90
59307;DHT22;47983;53.016;-2.260;2023-07-31T12:43:46;15.90;99.90
59307;DHT22;47983;53.016;-2.260;2023-07-31T12:46:14;15.90;99.90
59307;DHT22;47983;53.016;-2.260;2023-07-31T12:48:43;15.90;99.90
59307;DHT22;47983;53.016;-2.260;2023-07-31T12:51:11;15.90;99.90
59307;DHT22;47983;53.016;-2.260;2023-07-31T12:53:39;15.80;99.90
59307;DHT22;47983;53.016;-2.260;2023-07-31T13:01:03;15.80;99.90
59307;DHT22;47983;53.016;-2.260;2023-07-31T13:03:30;15.80;99.90
59307;DHT22;47983;53.016;-2.260;2023-07-31T13:05:58;15.80;99.90
59307;DHT22;47983;53.016;-2.260;2023-07-31T13:08:26;15.80;99.90
59307;DHT22;47983;53.016;-2.260;2023-07-31T13:15:50;15.80;99.90
59307;DHT22;47983;53.016;-2.260;2023-07-31T13:18:18;15.80;99.90
59307;DHT22;47983;53.016;-2.260;2023-07-31T13:23:14;15.80;99.90
59307;DHT22;47983;53.016;-2.260;2023-07-31T13:25:42;15.80;99.90
59307;DHT22;47983;53.016;-2.260;2023-07-31T13:28:10;15.80;99.90
59307;DHT22;47983;53.016;-2.260;2023-07-31T13:30:38;15.70;99.90
59307;DHT22;47983;53.016;-2.260;2023-07-31T13:33:06;15.80;99.90
59307;DHT22;47983;53.016;-2.260;2023-07-31T13:35:44;15.80;99.90
59307;DHT22;47983;53.016;-2.260;2023-07-31T13:38:11;15.80;99.90
59307;DHT22;47983;53.016;-2.260;2023-07-31T13:40:39;15.80;99.90
59307;DHT22;47983;53.016;-2.260;2023-07-31T13:43:07;15.70;99.90
59307;DHT22;47983;53.016;-2.260;2023-07-31T13:45:35;15.80;99.90
59307;DHT22;47983;53.016;-2.260;2023-07-31T13:48:02;15.80;99.90
59307;DHT22;47983;53.016;-2.260;2023-07-31T13:52:59;16.00;99.90
59307;DHT22;47983;53.016;-2.260;2023-07-31T13:55:27;15.90;99.90
59307;DHT22;47983;53.016;-2.260;2023-07-31T14:00:23;16.00;99.90
59307;DHT22;47983;53.016;-2.260;2023-07-31T14:02:50;16.00;99.90
59307;DHT22;47983;53.016;-2.260;2023-07-31T14:05:18;16.10;99.90
59307;DHT22;47983;53.016;-2.260;2023-07-31T14:07:46;16.20;99.90
59307;DHT22;47983;53.016;-2.260;2023-07-31T14:10:14;16.20;99.90
59307;DHT22;47983;53.016;-2.260;2023-07-31T14:12:42;16.30;99.90
59307;DHT22;47983;53.016;-2.260;2023-07-31T14:15:10;16.40;99.90
59307;DHT22;47983;53.016;-2.260;2023-07-31T14:17:39;16.40;99.90
59307;DHT22;47983;53.016;-2.260;2023-07-31T14:20:07;16.50;99.90
59307;DHT22;47983;53.016;-2.260;2023-07-31T14:22:35;16.50;99.90
59307;DHT22;47983;53.016;-2.260;2023-07-31T14:25:04;16.50;99.90
59307;DHT22;47983;53.016;-2.260;2023-07-31T14:27:31;16.50;99.90
59307;DHT22;47983;53.016;-2.260;2023-07-31T14:29:59;16.50;99.90
59307;DHT22;47983;53.016;-2.260;2023-07-31T14:32:27;16.40;99.90
59307;DHT22;47983;53.016;-2.260;2023-07-31T14:34:55;16.40;99.90
59307;DHT22;47983;53.016;-2.260;2023-07-31T14:37:26;16.40;99.90
59307;DHT22;47983;53.016;-2.260;2023-07-31T14:39:57;16.40;99.90
59307;DHT22;47983;53.016;-2.260;2023-07-31T14:42:24;16.30;99.90
59307;DHT22;47983;53.016;-2.260;2023-07-31T14:44:55;16.30;99.90
59307;DHT22;47983;53.016;-2.260;2023-07-31T14:47:23;16.30;99.90
59307;DHT22;47983;53.016;-2.260;2023-07-31T14:49:51;16.30;99.90
59307;DHT22;47983;53.016;-2.260;2023-07-31T14:52:18;16.30;99.90
59307;DHT22;47983;53.016;-2.260;2023-07-31T14:54:46;16.20;99.90
59307;DHT22;47983;53.016;-2.260;2023-07-31T14:57:14;16.20;99.90
59307;DHT22;47983;53.016;-2.260;2023-07-31T14:59:41;16.20;99.90
59307;DHT22;47983;53.016;-2.260;2023-07-31T15:02:09;16.10;99.90
59307;DHT22;47983;53.016;-2.260;2023-07-31T15:04:37;16.10;99.90
59307;DHT22;47983;53.016;-2.260;2023-07-31T15:07:05;16.10;99.90
59307;DHT22;47983;53.016;-2.260;2023-07-31T15:09:33;16.10;99.90
59307;DHT22;47983;53.016;-2.260;2023-07-31T15:12:01;16.10;99.90
59307;DHT22;47983;53.016;-2.260;2023-07-31T15:14:28;16.20;99.90
59307;DHT22;47983;53.016;-2.260;2023-07-31T15:16:58;16.20;99.90
59307;DHT22;47983;53.016;-2.260;2023-07-31T15:19:26;16.30;99.90
59307;DHT22;47983;53.016;-2.260;2023-07-31T15:21:53;16.30;99.90
59307;DHT22;47983;53.016;-2.260;2023-07-31T15:24:21;16.30;99.90
59307;DHT22;47983;53.016;-2.260;2023-07-31T15:26:49;16.40;99.90
59307;DHT22;47983;53.016;-2.260;2023-07-31T15:29:16;16.40;99.90
59307;DHT22;47983;53.016;-2.260;2023-07-31T15:31:48;16.50;99.90
59307;DHT22;47983;53.016;-2.260;2023-07-31T15:34:17;16.60;99.90
59307;DHT22;47983;53.016;-2.260;2023-07-31T15:36:46;16.70;99.90
59307;DHT22;47983;53.016;-2.260;2023-07-31T15:41:42;16.90;99.90
59307;DHT22;47983;53.016;-2.260;2023-07-31T15:44:10;17.10;99.90
59307;DHT22;47983;53.016;-2.260;2023-07-31T15:46:38;17.20;99.90
59307;DHT22;47983;53.016;-2.260;2023-07-31T15:49:06;17.40;99.90
59307;DHT22;47983;53.016;-2.260;2023-07-31T15:51:34;17.50;99.90
59307;DHT22;47983;53.016;-2.260;2023-07-31T15:54:02;17.60;99.90
59307;DHT22;47983;53.016;-2.260;2023-07-31T15:56:30;17.70;99.90
59307;DHT22;47983;53.016;-2.260;2023-07-31T15:58:57;17.70;99.90
59307;DHT22;47983;53.016;-2.260;2023-07-31T16:03:54;17.70;99.90
59307;DHT22;47983;53.016;-2.260;2023-07-31T16:06:22;17.80;99.90
59307;DHT22;47983;53.016;-2.260;2023-07-31T16:08:50;17.70;99.90